sensor_id;sensor_type;location;lat;lon;timestamp;pressure;altitude;pressure_sealevel;temperature;humidity
49311;BME280;35177;45.900;5.946;2023-02-26T00:00:35;96325.22;;;3.45;100.00
49311;BME280;35177;45.900;5.946;2023-02-26T00:03:00;96334.06;;;3.42;100.00
49311;BME280;35177;45.900;5.946;2023-02-26T00:05:26;96332.94;;;3.43;100.00
49311;BME280;35177;45.900;5.946;2023-02-26T00:07:51;96322.25;;;3.42;98.91
49311;BME280;35177;45.900;5.946;2023-02-26T00:10:18;96331.53;;;3.46;97.40
49311;BME280;35177;45.900;5.946;2023-02-26T00:12:44;96333.22;;;3.42;100.00
49311;BME280;35177;45.900;5.946;2023-02-26T00:15:11;96340.97;;;3.40;100.00
49311;BME280;35177;45.900;5.946;2023-02-26T00:17:57;96334.44;;;3.35;98.55
49311;BME280;35177;45.900;5.946;2023-02-26T00:20:24;96337.91;;;3.41;92.28
49311;BME280;35177;45.900;5.946;2023-02-26T00:22:50;96331.31;;;3.42;91.53
49311;BME280;35177;45.900;5.946;2023-02-26T00:25:16;96329.59;;;3.46;91.28
49311;BME280;35177;45.900;5.946;2023-02-26T00:27:42;96323.09;;;3.42;93.21
49311;BME280;35177;45.900;5.946;2023-02-26T00:30:09;96323.00;;;3.47;90.67
49311;BME280;35177;45.900;5.946;2023-02-26T00:32:35;96326.19;;;3.35;90.09
49311;BME280;35177;45.900;5.946;2023-02-26T00:35:01;96313.31;;;3.36;86.87
49311;BME280;35177;45.900;5.946;2023-02-26T00:38:01;96341.97;;;3.11;97.63
49311;BME280;35177;45.900;5.946;2023-02-26T00:40:43;96345.97;;;3.18;100.00
49311;BME280;35177;45.900;5.946;2023-02-26T00:43:14;96318.47;;;3.24;89.91
49311;BME280;35177;45.900;5.946;2023-02-26T00:45:46;96314.69;;;3.19;92.36
49311;BME280;35177;45.900;5.946;2023-02-26T00:48:20;96332.56;;;2.98;99.64
49311;BME280;35177;45.900;5.946;2023-02-26T00:54:02;96329.75;;;3.03;94.58
49311;BME280;35177;45.900;5.946;2023-02-26T00:56:30;96352.25;;;3.00;99.01
49311;BME280;35177;45.900;5.946;2023-02-26T00:58:55;96334.66;;;3.06;85.06
49311;BME280;35177;45.900;5.946;2023-02-26T01:01:22;96311.03;;;2.91;90.39
49311;BME280;35177;45.900;5.946;2023-02-26T01:03:47;96330.44;;;2.76;91.41
49311;BME280;35177;45.900;5.946;2023-02-26T01:06:16;96336.00;;;2.70;92.25
49311;BME280;35177;45.900;5.946;2023-02-26T01:11:47;96332.31;;;2.80;86.23
49311;BME280;35177;45.900;5.946;2023-02-26T01:14:13;96314.44;;;2.83;84.68
49311;BME280;35177;45.900;5.946;2023-02-26T01:19:46;96326.06;;;2.75;86.08
49311;BME280;35177;45.900;5.946;2023-02-26T01:22:22;96328.06;;;2.69;88.15
49311;BME280;35177;45.900;5.946;2023-02-26T01:24:55;96335.78;;;2.67;85.35
49311;BME280;35177;45.900;5.946;2023-02-26T01:27:24;96333.03;;;2.67;82.60
49311;BME280;35177;45.900;5.946;2023-02-26T01:29:49;96326.44;;;2.68;84.22
49311;BME280;35177;45.900;5.946;2023-02-26T01:32:23;96343.16;;;2.66;80.99
49311;BME280;35177;45.900;5.946;2023-02-26T01:34:59;96342.22;;;2.57;86.16
49311;BME280;35177;45.900;5.946;2023-02-26T01:37:41;96330.94;;;2.59;82.95
49311;BME280;35177;45.900;5.946;2023-02-26T01:43:19;96333.25;;;2.51;85.12
49311;BME280;35177;45.900;5.946;2023-02-26T01:46:04;96327.19;;;2.54;81.25
49311;BME280;35177;45.900;5.946;2023-02-26T01:48:37;96350.47;;;2.52;84.44
49311;BME280;35177;45.900;5.946;2023-02-26T01:51:03;96329.97;;;2.49;82.99
49311;BME280;35177;45.900;5.946;2023-02-26T01:53:29;96316.81;;;2.51;83.63
49311;BME280;35177;45.900;5.946;2023-02-26T01:55:57;96325.81;;;2.52;84.90
49311;BME280;35177;45.900;5.946;2023-02-26T01:58:27;96323.47;;;2.45;86.20
49311;BME280;35177;45.900;5.946;2023-02-26T02:00:55;96326.50;;;2.44;88.27
49311;BME280;35177;45.900;5.946;2023-02-26T02:03:21;96322.72;;;2.39;88.12
49311;BME280;35177;45.900;5.946;2023-02-26T02:06:11;96320.56;;;2.36;88.30
49311;BME280;35177;45.900;5.946;2023-02-26T02:08:39;96326.34;;;2.35;90.63
49311;BME280;35177;45.900;5.946;2023-02-26T02:11:09;96322.84;;;2.29;94.11
49311;BME280;35177;45.900;5.946;2023-02-26T02:14:00;96322.56;;;2.31;93.82
49311;BME280;35177;45.900;5.946;2023-02-26T02:22:45;96314.47;;;2.20;100.00
49311;BME280;35177;45.900;5.946;2023-02-26T02:25:45;96318.16;;;2.11;100.00
49311;BME280;35177;45.900;5.946;2023-02-26T02:28:39;96330.44;;;2.13;100.00
49311;BME280;35177;45.900;5.946;2023-02-26T02:36:35;96324.38;;;2.16;100.00
49311;BME280;35177;45.900;5.946;2023-02-26T02:39:09;96334.50;;;2.16;100.00
49311;BME280;35177;45.900;5.946;2023-02-26T02:41:44;96330.16;;;2.15;100.00
49311;BME280;35177;45.900;5.946;2023-02-26T02:44:13;96340.28;;;2.14;100.00
49311;BME280;35177;45.900;5.946;2023-02-26T02:46:42;96336.22;;;2.12;100.00
49311;BME280;35177;45.900;5.946;2023-02-26T02:49:23;96342.31;;;2.03;100.00
49311;BME280;35177;45.900;5.946;2023-02-26T02:54:26;96345.13;;;1.98;100.00
49311;BME280;35177;45.900;5.946;2023-02-26T02:57:10;96354.59;;;2.06;100.00
49311;BME280;35177;45.900;5.946;2023-02-26T02:59:43;96351.06;;;2.05;100.00
49311;BME280;35177;45.900;5.946;2023-02-26T03:04:45;96357.16;;;1.97;100.00
49311;BME280;35177;45.900;5.946;2023-02-26T03:07:13;96345.19;;;1.93;100.00
49311;BME280;35177;45.900;5.946;2023-02-26T03:09:38;96343.63;;;1.87;100.00
49311;BME280;35177;45.900;5.946;2023-02-26T03:12:04;96356.47;;;1.86;100.00
49311;BME280;35177;45.900;5.946;2023-02-26T03:14:30;96358.41;;;1.86;100.00
49311;BME280;35177;45.900;5.946;2023-02-26T03:20:20;96367.53;;;1.76;100.00
49311;BME280;35177;45.900;5.946;2023-02-26T03:23:23;96350.81;;;1.77;100.00
49311;BME280;35177;45.900;5.946;2023-02-26T03:26:07;96355.50;;;1.72;100.00
49311;BME280;35177;45.900;5.946;2023-02-26T03:36:20;96358.31;;;1.67;100.00
49311;BME280;35177;45.900;5.946;2023-02-26T03:38:52;96360.06;;;1.57;100.00
49311;BME280;35177;45.900;5.946;2023-02-26T03:41:24;96367.97;;;1.59;100.00
49311;BME280;35177;45.900;5.946;2023-02-26T03:44:08;96377.59;;;1.51;100.00
49311;BME280;35177;45.900;5.946;2023-02-26T03:46:39;96366.66;;;1.51;100.00
49311;BME280;35177;45.900;5.946;2023-02-26T03:49:13;96360.41;;;1.46;100.00
49311;BME280;35177;45.900;5.946;2023-02-26T03:51:40;96368.88;;;1.49;100.00
49311;BME280;35177;45.900;5.946;2023-02-26T03:54:16;96368.63;;;1.46;100.00
49311;BME280;35177;45.900;5.946;2023-02-26T03:56:45;96377.72;;;1.36;100.00
49311;BME280;35177;45.900;5.946;2023-02-26T03:59:13;96382.41;;;1.30;100.00
49311;BME280;35177;45.900;5.946;2023-02-26T04:01:50;96366.25;;;1.34;100.00
49311;BME280;35177;45.900;5.946;2023-02-26T04:04:24;96360.78;;;1.34;100.00
49311;BME280;35177;45.900;5.946;2023-02-26T04:06:51;96367.09;;;1.29;100.00
49311;BME280;35177;45.900;5.946;2023-02-26T04:09:18;96360.03;;;1.28;100.00
49311;BME280;35177;45.900;5.946;2023-02-26T04:11:45;96366.91;;;1.25;100.00
49311;BME280;35177;45.900;5.946;2023-02-26T04:14:11;96358.09;;;1.28;100.00
49311;BME280;35177;45.900;5.946;2023-02-26T04:16:37;96362.00;;;1.22;100.00
49311;BME280;35177;45.900;5.946;2023-02-26T04:19:02;96356.53;;;1.22;100.00
49311;BME280;35177;45.900;5.946;2023-02-26T04:21:28;96356.81;;;1.21;100.00
49311;BME280;35177;45.900;5.946;2023-02-26T04:23:53;96370.19;;;1.22;100.00
49311;BME280;35177;45.900;5.946;2023-02-26T04:26:19;96360.94;;;1.18;100.00
49311;BME280;35177;45.900;5.946;2023-02-26T04:28:44;96360.34;;;1.21;100.00
49311;BME280;35177;45.900;5.946;2023-02-26T04:31:10;96366.41;;;1.13;100.00
49311;BME280;35177;45.900;5.946;2023-02-26T04:33:36;96359.00;;;1.19;100.00
49311;BME280;35177;45.900;5.946;2023-02-26T04:36:01;96357.09;;;1.19;100.00
49311;BME280;35177;45.900;5.946;2023-02-26T04:38:27;96353.59;;;1.14;100.00
49311;BME280;35177;45.900;5.946;2023-02-26T04:40:53;96361.84;;;1.08;100.00
49311;BME280;35177;45.900;5.946;2023-02-26T04:43:19;96357.97;;;1.15;100.00
49311;BME280;35177;45.900;5.946;2023-02-26T04:45:45;96358.75;;;1.15;100.00
49311;BME280;35177;45.900;5.946;2023-02-26T04:48:12;96353.34;;;1.10;100.00
49311;BME280;35177;45.900;5.946;2023-02-26T04:50:38;96360.94;;;1.13;100.00
49311;BME280;35177;45.900;5.946;2023-02-26T04:53:03;96360.19;;;1.07;100.00
49311;BME280;35177;45.900;5.946;2023-02-26T04:55:29;96367.53;;;1.12;100.00
49311;BME280;35177;45.900;5.946;2023-02-26T04:57:54;96361.84;;;1.08;100.00
49311;BME280;35177;45.900;5.946;2023-02-26T05:00:20;96358.56;;;1.06;100.00
49311;BME280;35177;45.900;5.946;2023-02-26T05:02:46;96355.28;;;1.09;100.00
49311;BME280;35177;45.900;5.946;2023-02-26T05:05:11;96356.63;;;1.12;100.00
49311;BME280;35177;45.900;5.946;2023-02-26T05:07:37;96352.81;;;1.08;100.00
49311;BME280;35177;45.900;5.946;2023-02-26T05:10:05;96348.81;;;0.95;100.00
49311;BME280;35177;45.900;5.946;2023-02-26T05:12:30;96347.72;;;0.96;100.00
49311;BME280;35177;45.900;5.946;2023-02-26T05:14:56;96357.56;;;0.92;100.00
49311;BME280;35177;45.900;5.946;2023-02-26T05:17:21;96361.63;;;0.94;100.00
49311;BME280;35177;45.900;5.946;2023-02-26T05:19:47;96367.09;;;0.94;100.00
49311;BME280;35177;45.900;5.946;2023-02-26T05:22:13;96352.13;;;0.87;100.00
49311;BME280;35177;45.900;5.946;2023-02-26T05:24:39;96339.88;;;0.84;100.00
49311;BME280;35177;45.900;5.946;2023-02-26T05:27:05;96347.78;;;0.86;100.00
49311;BME280;35177;45.900;5.946;2023-02-26T05:29:31;96330.63;;;0.80;100.00
49311;BME280;35177;45.900;5.946;2023-02-26T05:31:56;96351.13;;;0.72;100.00
49311;BME280;35177;45.900;5.946;2023-02-26T05:34:22;96340.19;;;0.77;100.00
49311;BME280;35177;45.900;5.946;2023-02-26T05:36:48;96352.53;;;0.70;100.00
49311;BME280;35177;45.900;5.946;2023-02-26T05:39:14;96359.91;;;0.69;100.00
49311;BME280;35177;45.900;5.946;2023-02-26T05:41:39;96355.25;;;0.70;100.00
49311;BME280;35177;45.900;5.946;2023-02-26T05:44:05;96359.66;;;0.66;100.00
49311;BME280;35177;45.900;5.946;2023-02-26T05:46:32;96360.22;;;0.62;100.00
49311;BME280;35177;45.900;5.946;2023-02-26T05:48:58;96348.47;;;0.62;100.00
49311;BME280;35177;45.900;5.946;2023-02-26T05:51:23;96353.69;;;0.58;100.00
49311;BME280;35177;45.900;5.946;2023-02-26T05:53:49;96355.31;;;0.59;100.00
49311;BME280;35177;45.900;5.946;2023-02-26T05:56:14;96358.59;;;0.56;100.00
49311;BME280;35177;45.900;5.946;2023-02-26T05:58:40;96361.34;;;0.56;100.00
49311;BME280;35177;45.900;5.946;2023-02-26T06:01:05;96367.41;;;0.48;100.00
49311;BME280;35177;45.900;5.946;2023-02-26T06:03:31;96364.09;;;0.51;100.00
49311;BME280;35177;45.900;5.946;2023-02-26T06:05:56;96362.44;;;0.55;100.00
49311;BME280;35177;45.900;5.946;2023-02-26T06:08:22;96358.59;;;0.56;100.00
49311;BME280;35177;45.900;5.946;2023-02-26T06:10:49;96356.75;;;0.46;100.00
49311;BME280;35177;45.900;5.946;2023-02-26T06:13:15;96370.34;;;0.52;100.00
49311;BME280;35177;45.900;5.946;2023-02-26T06:15:40;96357.84;;;0.51;100.00
49311;BME280;35177;45.900;5.946;2023-02-26T06:18:06;96348.00;;;0.50;100.00
49311;BME280;35177;45.900;5.946;2023-02-26T06:20:33;96365.19;;;0.50;100.00
49311;BME280;35177;45.900;5.946;2023-02-26T06:22:58;96370.44;;;0.41;100.00
49311;BME280;35177;45.900;5.946;2023-02-26T06:25:24;96364.41;;;0.39;100.00
49311;BME280;35177;45.900;5.946;2023-02-26T06:27:49;96367.97;;;0.40;100.00
49311;BME280;35177;45.900;5.946;2023-02-26T06:30:15;96372.09;;;0.37;100.00
49311;BME280;35177;45.900;5.946;2023-02-26T06:32:42;96354.31;;;0.45;100.00
49311;BME280;35177;45.900;5.946;2023-02-26T06:35:08;96376.44;;;0.43;100.00
49311;BME280;35177;45.900;5.946;2023-02-26T06:37:35;96369.63;;;0.41;100.00
49311;BME280;35177;45.900;5.946;2023-02-26T06:40:00;96368.53;;;0.37;100.00
49311;BME280;35177;45.900;5.946;2023-02-26T06:42:26;96382.88;;;0.63;100.00
49311;BME280;35177;45.900;5.946;2023-02-26T06:44:51;96376.34;;;0.59;100.00
49311;BME280;35177;45.900;5.946;2023-02-26T06:47:17;96378.00;;;0.55;100.00
49311;BME280;35177;45.900;5.946;2023-02-26T06:49:42;96379.09;;;0.54;100.00
49311;BME280;35177;45.900;5.946;2023-02-26T06:52:08;96385.88;;;0.67;100.00
49311;BME280;35177;45.900;5.946;2023-02-26T06:54:33;96361.72;;;1.53;87.79
49311;BME280;35177;45.900;5.946;2023-02-26T06:56:59;96376.88;;;1.70;85.10
49311;BME280;35177;45.900;5.946;2023-02-26T06:59:26;96353.44;;;2.12;79.63
49311;BME280;35177;45.900;5.946;2023-02-26T07:01:53;96355.22;;;2.65;73.91
49311;BME280;35177;45.900;5.946;2023-02-26T07:04:18;96355.81;;;2.81;71.23
49311;BME280;35177;45.900;5.946;2023-02-26T07:06:44;96348.22;;;2.78;68.52
49311;BME280;35177;45.900;5.946;2023-02-26T07:09:09;96367.00;;;2.85;66.50
49311;BME280;35177;45.900;5.946;2023-02-26T07:11:35;96362.50;;;2.75;66.58
49311;BME280;35177;45.900;5.946;2023-02-26T07:14:01;96371.03;;;2.49;67.63
49311;BME280;35177;45.900;5.946;2023-02-26T07:16:26;96372.53;;;2.17;72.39
49311;BME280;35177;45.900;5.946;2023-02-26T07:18:52;96373.25;;;1.50;73.55
49311;BME280;35177;45.900;5.946;2023-02-26T07:21:17;96372.56;;;1.34;75.40
49311;BME280;35177;45.900;5.946;2023-02-26T07:23:43;96383.75;;;0.98;74.91
49311;BME280;35177;45.900;5.946;2023-02-26T07:26:08;96377.13;;;1.39;76.24
49311;BME280;35177;45.900;5.946;2023-02-26T07:28:34;96370.22;;;1.52;76.89
49311;BME280;35177;45.900;5.946;2023-02-26T07:30:59;96341.41;;;1.59;67.80
49311;BME280;35177;45.900;5.946;2023-02-26T07:33:25;96367.25;;;0.74;75.05
49311;BME280;35177;45.900;5.946;2023-02-26T07:35:53;96363.22;;;0.61;74.75
49311;BME280;35177;45.900;5.946;2023-02-26T07:38:19;96367.69;;;0.41;77.68
49311;BME280;35177;45.900;5.946;2023-02-26T07:40:44;96371.00;;;0.33;80.74
49311;BME280;35177;45.900;5.946;2023-02-26T07:43:11;96380.06;;;0.18;78.81
49311;BME280;35177;45.900;5.946;2023-02-26T07:45:39;96362.81;;;0.33;78.60
49311;BME280;35177;45.900;5.946;2023-02-26T07:48:05;96356.88;;;0.71;76.93
49311;BME280;35177;45.900;5.946;2023-02-26T07:50:31;96362.09;;;1.07;72.80
49311;BME280;35177;45.900;5.946;2023-02-26T07:52:57;96359.59;;;0.76;70.23
49311;BME280;35177;45.900;5.946;2023-02-26T07:55:23;96354.28;;;0.95;67.62
49311;BME280;35177;45.900;5.946;2023-02-26T07:57:48;96355.13;;;0.90;67.05
49311;BME280;35177;45.900;5.946;2023-02-26T08:00:14;96335.78;;;0.82;67.08
49311;BME280;35177;45.900;5.946;2023-02-26T08:02:40;96308.97;;;0.54;66.86
49311;BME280;35177;45.900;5.946;2023-02-26T08:05:07;96312.22;;;0.91;65.02
49311;BME280;35177;45.900;5.946;2023-02-26T08:07:32;96324.13;;;0.71;65.10
49311;BME280;35177;45.900;5.946;2023-02-26T08:09:58;96304.03;;;0.91;65.22
49311;BME280;35177;45.900;5.946;2023-02-26T08:12:24;96335.19;;;0.45;66.26
49311;BME280;35177;45.900;5.946;2023-02-26T08:14:49;96336.66;;;0.27;67.42
49311;BME280;35177;45.900;5.946;2023-02-26T08:17:16;96327.03;;;0.40;67.07
49311;BME280;35177;45.900;5.946;2023-02-26T08:19:42;96329.00;;;0.29;67.77
49311;BME280;35177;45.900;5.946;2023-02-26T08:22:08;96329.22;;;0.38;66.30
49311;BME280;35177;45.900;5.946;2023-02-26T08:24:33;96339.63;;;1.15;63.35
49311;BME280;35177;45.900;5.946;2023-02-26T08:26:59;96342.72;;;1.38;62.79
49311;BME280;35177;45.900;5.946;2023-02-26T08:29:24;96352.53;;;1.44;60.77
49311;BME280;35177;45.900;5.946;2023-02-26T08:31:50;96337.53;;;1.66;60.62
49311;BME280;35177;45.900;5.946;2023-02-26T08:34:16;96355.94;;;2.08;60.47
49311;BME280;35177;45.900;5.946;2023-02-26T08:36:48;96402.25;;;1.75;59.08
49311;BME280;35177;45.900;5.946;2023-02-26T08:39:14;96369.91;;;1.83;59.02
49311;BME280;35177;45.900;5.946;2023-02-26T08:41:41;96369.56;;;1.89;60.54
49311;BME280;35177;45.900;5.946;2023-02-26T08:44:07;96373.06;;;2.44;58.90
49311;BME280;35177;45.900;5.946;2023-02-26T08:46:33;96366.41;;;2.50;58.23
49311;BME280;35177;45.900;5.946;2023-02-26T08:48:58;96385.28;;;2.51;58.13
49311;BME280;35177;45.900;5.946;2023-02-26T08:51:24;96363.03;;;2.34;57.32
49311;BME280;35177;45.900;5.946;2023-02-26T08:53:50;96373.66;;;2.60;57.56
49311;BME280;35177;45.900;5.946;2023-02-26T08:56:16;96360.78;;;2.98;56.53
49311;BME280;35177;45.900;5.946;2023-02-26T08:58:42;96374.00;;;3.48;57.42
49311;BME280;35177;45.900;5.946;2023-02-26T09:01:08;96363.53;;;3.50;56.54
49311;BME280;35177;45.900;5.946;2023-02-26T09:03:34;96375.28;;;3.37;55.76
49311;BME280;35177;45.900;5.946;2023-02-26T09:06:03;96356.44;;;3.49;56.57
49311;BME280;35177;45.900;5.946;2023-02-26T09:08:31;96364.47;;;3.27;55.74
49311;BME280;35177;45.900;5.946;2023-02-26T09:11:02;96386.69;;;3.25;56.39
49311;BME280;35177;45.900;5.946;2023-02-26T09:13:28;96378.03;;;2.80;56.12
49311;BME280;35177;45.900;5.946;2023-02-26T09:15:54;96398.69;;;2.91;56.56
49311;BME280;35177;45.900;5.946;2023-02-26T09:18:20;96386.16;;;3.23;55.09
49311;BME280;35177;45.900;5.946;2023-02-26T09:20:45;96360.47;;;3.19;57.04
49311;BME280;35177;45.900;5.946;2023-02-26T09:23:11;96388.81;;;3.47;55.65
49311;BME280;35177;45.900;5.946;2023-02-26T09:25:37;96386.50;;;3.02;55.39
49311;BME280;35177;45.900;5.946;2023-02-26T09:28:03;96378.09;;;3.32;56.88
49311;BME280;35177;45.900;5.946;2023-02-26T09:30:29;96385.00;;;3.62;54.95
49311;BME280;35177;45.900;5.946;2023-02-26T09:32:54;96380.47;;;3.72;55.18
49311;BME280;35177;45.900;5.946;2023-02-26T09:35:20;96384.78;;;3.59;54.90
49311;BME280;35177;45.900;5.946;2023-02-26T09:37:45;96369.75;;;4.31;53.64
49311;BME280;35177;45.900;5.946;2023-02-26T09:40:22;96378.72;;;3.76;52.90
49311;BME280;35177;45.900;5.946;2023-02-26T09:45:41;96356.94;;;4.91;51.76
49311;BME280;35177;45.900;5.946;2023-02-26T09:48:11;96341.13;;;4.96;51.43
49311;BME280;35177;45.900;5.946;2023-02-26T09:50:47;96365.63;;;3.73;52.65
49311;BME280;35177;45.900;5.946;2023-02-26T09:53:31;96369.94;;;4.07;51.99
49311;BME280;35177;45.900;5.946;2023-02-26T09:56:04;96369.31;;;4.52;51.21
49311;BME280;35177;45.900;5.946;2023-02-26T09:58:33;96371.25;;;4.37;50.68
49311;BME280;35177;45.900;5.946;2023-02-26T10:06:16;96394.13;;;4.74;50.83
49311;BME280;35177;45.900;5.946;2023-02-26T10:09:07;96378.88;;;4.68;50.87
49311;BME280;35177;45.900;5.946;2023-02-26T10:12:01;96382.44;;;4.69;51.70
49311;BME280;35177;45.900;5.946;2023-02-26T10:23:41;96356.44;;;4.24;50.50
49311;BME280;35177;45.900;5.946;2023-02-26T10:26:18;96364.00;;;4.83;49.57
49311;BME280;35177;45.900;5.946;2023-02-26T10:40:27;96356.00;;;4.45;49.30
49311;BME280;35177;45.900;5.946;2023-02-26T10:49:19;96353.75;;;4.97;49.53
49311;BME280;35177;45.900;5.946;2023-02-26T10:51:39;96382.66;;;4.16;51.93
49311;BME280;35177;45.900;5.946;2023-02-26T10:54:26;96366.28;;;3.50;52.44
49311;BME280;35177;45.900;5.946;2023-02-26T10:56:53;96337.09;;;4.15;53.34
49311;BME280;35177;45.900;5.946;2023-02-26T10:59:19;96334.41;;;4.52;50.60
49311;BME280;35177;45.900;5.946;2023-02-26T11:01:44;96358.41;;;3.77;51.27
49311;BME280;35177;45.900;5.946;2023-02-26T11:04:17;96360.59;;;4.36;52.66
49311;BME280;35177;45.900;5.946;2023-02-26T11:06:49;96433.47;;;3.67;51.23
49311;BME280;35177;45.900;5.946;2023-02-26T11:12:15;96360.94;;;3.87;51.78
49311;BME280;35177;45.900;5.946;2023-02-26T11:14:44;96363.44;;;4.44;52.36
49311;BME280;35177;45.900;5.946;2023-02-26T11:17:13;96350.31;;;4.41;51.86
49311;BME280;35177;45.900;5.946;2023-02-26T11:19:45;96353.56;;;4.43;53.12
49311;BME280;35177;45.900;5.946;2023-02-26T11:22:14;96373.88;;;3.86;51.84
49311;BME280;35177;45.900;5.946;2023-02-26T11:24:44;96409.22;;;3.74;52.19
49311;BME280;35177;45.900;5.946;2023-02-26T11:27:14;96363.22;;;3.19;52.64
49311;BME280;35177;45.900;5.946;2023-02-26T11:29:44;96372.47;;;3.56;51.35
49311;BME280;35177;45.900;5.946;2023-02-26T11:32:16;96364.88;;;3.53;52.91
49311;BME280;35177;45.900;5.946;2023-02-26T11:34:48;96362.56;;;3.60;53.09
49311;BME280;35177;45.900;5.946;2023-02-26T11:37:23;96330.38;;;3.80;52.71
49311;BME280;35177;45.900;5.946;2023-02-26T11:39:56;96371.78;;;3.50;52.22
49311;BME280;35177;45.900;5.946;2023-02-26T11:42:23;96323.75;;;3.67;52.34
49311;BME280;35177;45.900;5.946;2023-02-26T11:44:50;96348.00;;;3.60;51.04
49311;BME280;35177;45.900;5.946;2023-02-26T11:47:26;96336.28;;;3.40;53.30
49311;BME280;35177;45.900;5.946;2023-02-26T11:49:54;96355.16;;;2.89;53.34
49311;BME280;35177;45.900;5.946;2023-02-26T11:52:41;96325.22;;;3.12;54.45
49311;BME280;35177;45.900;5.946;2023-02-26T11:55:38;96336.22;;;2.93;52.19
49311;BME280;35177;45.900;5.946;2023-02-26T11:58:21;96325.84;;;3.23;51.56
49311;BME280;35177;45.900;5.946;2023-02-26T12:00:50;96360.91;;;3.07;52.47
49311;BME280;35177;45.900;5.946;2023-02-26T12:03:19;96356.03;;;2.85;52.72
49311;BME280;35177;45.900;5.946;2023-02-26T12:05:46;96341.19;;;3.24;53.81
49311;BME280;35177;45.900;5.946;2023-02-26T12:08:26;96365.47;;;2.35;54.03
49311;BME280;35177;45.900;5.946;2023-02-26T12:11:30;96358.91;;;2.12;54.45
49311;BME280;35177;45.900;5.946;2023-02-26T12:20:02;96354.28;;;1.59;54.98
49311;BME280;35177;45.900;5.946;2023-02-26T12:31:20;96356.94;;;1.93;55.34
49311;BME280;35177;45.900;5.946;2023-02-26T12:37:32;96327.31;;;2.44;54.00
49311;BME280;35177;45.900;5.946;2023-02-26T12:42:59;96358.91;;;2.12;52.42
49311;BME280;35177;45.900;5.946;2023-02-26T12:56:19;96347.38;;;1.67;51.20
49311;BME280;35177;45.900;5.946;2023-02-26T13:02:16;96350.44;;;1.60;52.35
49311;BME280;35177;45.900;5.946;2023-02-26T13:07:48;96307.84;;;1.78;51.61
49311;BME280;35177;45.900;5.946;2023-02-26T13:10:21;96322.47;;;1.39;53.91
49311;BME280;35177;45.900;5.946;2023-02-26T13:13:04;96307.84;;;2.02;53.82
49311;BME280;35177;45.900;5.946;2023-02-26T13:20:57;96304.13;;;2.17;52.60
49311;BME280;35177;45.900;5.946;2023-02-26T13:23:35;96330.69;;;2.17;52.36
49311;BME280;35177;45.900;5.946;2023-02-26T13:26:07;96320.25;;;2.19;52.53
49311;BME280;35177;45.900;5.946;2023-02-26T13:31:21;96328.88;;;1.83;51.60
49311;BME280;35177;45.900;5.946;2023-02-26T13:33:48;96335.53;;;1.47;52.37
49311;BME280;35177;45.900;5.946;2023-02-26T13:36:16;96340.66;;;1.24;53.03
49311;BME280;35177;45.900;5.946;2023-02-26T13:52:29;96319.59;;;1.54;53.28
49311;BME280;35177;45.900;5.946;2023-02-26T13:54:55;96306.59;;;1.41;53.53
49311;BME280;35177;45.900;5.946;2023-02-26T13:57:49;96304.28;;;1.53;53.30
49311;BME280;35177;45.900;5.946;2023-02-26T14:00:28;96295.00;;;1.54;52.54
49311;BME280;35177;45.900;5.946;2023-02-26T14:03:11;96318.22;;;1.27;53.78
49311;BME280;35177;45.900;5.946;2023-02-26T14:08:19;96298.03;;;1.23;54.56
49311;BME280;35177;45.900;5.946;2023-02-26T14:10:53;96308.13;;;1.23;54.84
49311;BME280;35177;45.900;5.946;2023-02-26T14:13:23;96318.56;;;1.21;54.31
49311;BME280;35177;45.900;5.946;2023-02-26T14:16:11;96300.47;;;1.25;54.55
49311;BME280;35177;45.900;5.946;2023-02-26T14:24:06;96294.47;;;1.52;55.30
49311;BME280;35177;45.900;5.946;2023-02-26T14:26:37;96295.06;;;1.49;54.70
49311;BME280;35177;45.900;5.946;2023-02-26T14:31:49;96279.53;;;1.15;53.35
49311;BME280;35177;45.900;5.946;2023-02-26T14:34:27;96287.66;;;1.20;53.87
49311;BME280;35177;45.900;5.946;2023-02-26T14:37:03;96306.00;;;1.20;54.23
49311;BME280;35177;45.900;5.946;2023-02-26T14:39:41;96299.19;;;1.17;53.63
49311;BME280;35177;45.900;5.946;2023-02-26T14:42:21;96280.34;;;1.16;53.46
49311;BME280;35177;45.900;5.946;2023-02-26T14:44:54;96277.13;;;1.08;53.61
49311;BME280;35177;45.900;5.946;2023-02-26T14:47:24;96289.31;;;1.21;53.96
49311;BME280;35177;45.900;5.946;2023-02-26T14:49:50;96315.28;;;1.19;54.62
49311;BME280;35177;45.900;5.946;2023-02-26T14:52:31;96294.25;;;1.19;54.76
49311;BME280;35177;45.900;5.946;2023-02-26T14:55:26;96331.06;;;1.27;54.05
49311;BME280;35177;45.900;5.946;2023-02-26T14:58:20;96294.94;;;1.01;53.95
49311;BME280;35177;45.900;5.946;2023-02-26T15:01:10;96291.91;;;1.07;54.70
49311;BME280;35177;45.900;5.946;2023-02-26T15:10:06;96310.44;;;1.10;54.83
49311;BME280;35177;45.900;5.946;2023-02-26T15:15:52;96254.22;;;1.04;54.66
49311;BME280;35177;45.900;5.946;2023-02-26T15:23:54;96278.25;;;1.07;54.16
49311;BME280;35177;45.900;5.946;2023-02-26T15:26:33;96279.53;;;1.15;55.10
49311;BME280;35177;45.900;5.946;2023-02-26T15:29:02;96260.34;;;1.20;55.53
49311;BME280;35177;45.900;5.946;2023-02-26T15:31:38;96277.41;;;1.07;54.70
49311;BME280;35177;45.900;5.946;2023-02-26T15:34:05;96284.00;;;1.01;54.33
49311;BME280;35177;45.900;5.946;2023-02-26T15:36:30;96277.25;;;0.93;54.34
49311;BME280;35177;45.900;5.946;2023-02-26T15:38:58;96264.13;;;0.95;54.85
49311;BME280;35177;45.900;5.946;2023-02-26T15:41:27;96277.56;;;0.91;55.16
49311;BME280;35177;45.900;5.946;2023-02-26T15:43:56;96283.63;;;0.83;54.52
49311;BME280;35177;45.900;5.946;2023-02-26T15:46:28;96288.22;;;0.88;55.67
49311;BME280;35177;45.900;5.946;2023-02-26T15:48:59;96318.28;;;0.88;57.00
49311;BME280;35177;45.900;5.946;2023-02-26T15:51:26;96291.84;;;0.78;57.04
49311;BME280;35177;45.900;5.946;2023-02-26T15:53:52;96301.47;;;0.70;57.55
49311;BME280;35177;45.900;5.946;2023-02-26T15:56:27;96306.94;;;0.65;58.45
49311;BME280;35177;45.900;5.946;2023-02-26T15:58:58;96305.06;;;0.66;60.05
49311;BME280;35177;45.900;5.946;2023-02-26T16:01:28;96308.34;;;0.62;59.92
49311;BME280;35177;45.900;5.946;2023-02-26T16:04:04;96300.97;;;0.63;61.31
49311;BME280;35177;45.900;5.946;2023-02-26T16:06:34;96313.78;;;0.62;60.37